createdAt,value
2023-01-02T00:00:23.407Z,62.40
2023-01-02T00:03:26.084Z,56.17
2023-01-02T00:06:28.590Z,57.35
2023-01-02T00:09:31.055Z,60.70
2023-01-02T00:12:33.534Z,60.77
2023-01-02T00:15:36.208Z,57.25
2023-01-02T00:18:40.485Z,64.43
2023-01-02T00:21:44.787Z,59.05
2023-01-02T00:24:47.297Z,58.00
2023-01-02T00:27:49.858Z,59.13
2023-01-02T00:30:52.792Z,63.47
2023-01-02T00:33:55.308Z,63.83
2023-01-02T00:36:57.829Z,63.08
2023-01-02T00:40:00.401Z,70.73
2023-01-02T00:43:02.925Z,65.63
2023-01-02T00:46:11.224Z,69.90
2023-01-02T00:49:14.299Z,62.35
2023-01-02T00:52:16.797Z,62.15
2023-01-02T00:55:19.258Z,68.47
2023-01-02T00:58:21.769Z,62.23
2023-01-02T01:01:24.351Z,63.63
2023-01-02T01:04:27.149Z,60.42
2023-01-02T01:07:29.937Z,59.83
2023-01-02T01:10:35.419Z,72.73
2023-01-02T01:13:38.366Z,68.70
2023-01-02T01:16:41.913Z,66.38
2023-01-02T01:19:44.603Z,70.85
2023-01-02T01:22:47.768Z,67.38
2023-01-02T01:25:50.202Z,66.53
2023-01-02T01:28:54.378Z,73.50
2023-01-02T01:31:56.914Z,73.68
2023-01-02T01:34:59.485Z,76.28
2023-01-02T01:38:02.031Z,73.82
2023-01-02T01:41:06.074Z,78.13
2023-01-02T01:44:44.057Z,76.73
2023-01-02T01:47:55.222Z,80.20
2023-01-02T01:50:58.179Z,85.97
2023-01-02T01:54:07.565Z,81.32
2023-01-02T01:57:19.312Z,78.23
2023-01-02T02:00:21.878Z,96.17
2023-01-02T02:03:27.818Z,107.40
2023-01-02T02:06:30.370Z,86.40
2023-01-02T02:09:39.161Z,93.55
2023-01-02T02:12:41.713Z,136.57
2023-01-02T02:15:58.966Z,106.33
2023-01-02T02:19:17.892Z,126.22
2023-01-02T02:22:44.723Z,107.88
2023-01-02T02:26:25.944Z,160.27
2023-01-02T02:30:00.757Z,120.77
2023-01-02T02:33:03.205Z,114.33
2023-01-02T02:36:20.000Z,113.75
2023-01-02T02:39:26.960Z,104.20
2023-01-02T02:42:57.291Z,112.50
2023-01-02T02:46:36.632Z,87.80
2023-01-02T02:49:54.044Z,92.17
2023-01-02T02:53:04.502Z,81.40
2023-01-02T02:56:09.846Z,77.75
2023-01-02T02:59:12.723Z,73.00
2023-01-02T03:02:16.955Z,88.73
2023-01-02T03:05:35.177Z,90.87
2023-01-02T03:08:43.910Z,106.95
2023-01-02T03:12:08.606Z,102.55
2023-01-02T03:15:29.752Z,82.25
2023-01-02T03:18:45.854Z,103.90
2023-01-02T03:21:55.408Z,90.50
2023-01-02T03:24:59.254Z,110.68
2023-01-02T03:28:06.328Z,105.90
2023-01-02T03:31:11.652Z,107.05
2023-01-02T03:34:18.959Z,100.77
2023-01-02T03:37:29.196Z,96.67
2023-01-02T03:40:39.032Z,94.53
2023-01-02T03:43:44.201Z,81.03
2023-01-02T03:46:59.049Z,79.63
2023-01-02T03:50:09.909Z,67.60
2023-01-02T03:53:13.798Z,67.37
2023-01-02T03:56:22.129Z,93.20
2023-01-02T03:59:35.427Z,87.93
2023-01-02T04:02:37.956Z,94.85
2023-01-02T04:05:55.799Z,78.03
2023-01-02T04:09:22.428Z,83.80
2023-01-02T04:12:26.873Z,77.85
2023-01-02T04:15:33.887Z,65.35
2023-01-02T04:18:46.855Z,71.15
2023-01-02T04:21:53.470Z,65.37
2023-01-02T04:25:06.542Z,63.20
2023-01-02T04:28:30.383Z,75.00
2023-01-02T04:31:44.735Z,77.03
2023-01-02T04:34:48.855Z,62.70
2023-01-02T04:37:51.360Z,60.03
2023-01-02T04:40:55.035Z,59.03
2023-01-02T04:43:59.653Z,56.63
2023-01-02T04:47:02.090Z,73.90
2023-01-02T04:50:06.429Z,65.35
2023-01-02T04:53:10.804Z,59.70
2023-01-02T04:56:13.242Z,61.30
2023-01-02T04:59:15.783Z,56.60
2023-01-02T05:02:18.311Z,52.60
2023-01-02T05:05:20.775Z,52.10
2023-01-02T05:08:23.251Z,50.80
2023-01-02T05:11:25.788Z,53.67
2023-01-02T05:14:30.492Z,50.50
2023-01-02T05:17:39.977Z,48.72
2023-01-02T05:20:42.645Z,49.20
2023-01-02T05:23:50.729Z,53.80
2023-01-02T05:26:54.733Z,55.93
2023-01-02T05:29:57.239Z,50.30
2023-01-02T05:32:59.719Z,52.08
2023-01-02T05:36:05.685Z,53.05
2023-01-02T05:39:09.287Z,53.30
2023-01-02T05:42:11.810Z,53.97
2023-01-02T05:45:14.297Z,64.45
2023-01-02T05:48:16.826Z,60.10
2023-01-02T05:51:20.650Z,65.97
2023-01-02T05:54:23.115Z,73.73
2023-01-02T05:57:25.570Z,62.63
2023-01-02T06:00:28.950Z,65.50
2023-01-02T06:03:31.694Z,58.78
2023-01-02T06:06:40.408Z,68.55
2023-01-02T06:09:43.085Z,67.27
2023-01-02T06:12:45.595Z,59.07
2023-01-02T06:15:48.095Z,78.00
2023-01-02T06:18:51.501Z,63.10
2023-01-02T06:21:54.085Z,69.15
2023-01-02T06:24:56.548Z,65.80
2023-01-02T06:27:59.060Z,67.00
2023-01-02T06:31:10.330Z,72.90
2023-01-02T06:34:12.973Z,54.47
2023-01-02T06:37:15.504Z,63.30
2023-01-02T06:40:18.085Z,58.47
2023-01-02T06:43:21.070Z,53.07
2023-01-02T06:46:24.678Z,56.40
2023-01-02T06:49:27.256Z,53.63
2023-01-02T06:52:29.962Z,49.53
2023-01-02T06:55:32.432Z,49.57
2023-01-02T06:58:36.269Z,54.37
2023-01-02T07:01:39.013Z,53.05
2023-01-02T07:04:41.736Z,51.28
2023-01-02T07:07:44.247Z,46.55
2023-01-02T07:10:52.529Z,49.50
2023-01-02T07:13:55.499Z,48.80
2023-01-02T07:16:57.960Z,47.85
2023-01-02T07:20:02.566Z,51.40
2023-01-02T07:23:05.203Z,44.97
2023-01-02T07:26:08.511Z,42.33
2023-01-02T07:29:11.111Z,44.93
2023-01-02T07:32:13.728Z,43.20
2023-01-02T07:35:16.348Z,46.35
2023-01-02T07:38:18.884Z,45.50
2023-01-02T07:41:24.418Z,43.23
2023-01-02T07:44:26.958Z,50.23
2023-01-02T07:47:29.420Z,46.58
2023-01-02T07:50:35.789Z,48.95
2023-01-02T07:53:39.144Z,43.10
2023-01-02T07:56:41.741Z,45.87
2023-01-02T07:59:47.044Z,45.93
2023-01-02T08:02:55.076Z,46.38
2023-01-02T08:06:05.286Z,39.80
2023-01-02T08:09:08.082Z,43.65
2023-01-02T08:12:10.538Z,53.30
2023-01-02T08:15:13.079Z,62.93
2023-01-02T08:18:15.534Z,59.97
2023-01-02T08:21:18.338Z,54.70
2023-01-02T08:24:20.777Z,58.45
2023-01-02T08:27:23.261Z,61.10
2023-01-02T08:30:26.389Z,54.93
2023-01-02T08:33:28.978Z,54.15
2023-01-02T08:36:31.503Z,54.75
2023-01-02T08:39:34.042Z,60.25
2023-01-02T08:42:37.400Z,56.87
2023-01-02T08:45:39.891Z,42.63
2023-01-02T08:48:42.339Z,35.70
2023-01-02T08:51:45.302Z,40.78
2023-01-02T08:54:47.777Z,36.65
2023-01-02T08:57:50.308Z,36.27
2023-01-02T09:00:53.121Z,34.67
2023-01-02T09:03:56.095Z,41.40
2023-01-02T09:06:58.641Z,38.92
2023-01-02T09:10:01.344Z,44.80
2023-01-02T09:13:04.039Z,39.97
2023-01-02T09:16:07.439Z,41.60
2023-01-02T09:19:10.053Z,38.50
2023-01-02T09:22:12.596Z,40.03
2023-01-02T09:25:20.336Z,48.53
2023-01-02T09:28:27.748Z,40.43
2023-01-02T09:31:30.355Z,48.53
2023-01-02T09:34:32.840Z,39.15
2023-01-02T09:37:35.320Z,41.05
2023-01-02T09:40:52.349Z,37.85
2023-01-02T09:44:06.503Z,35.03
2023-01-02T09:47:16.031Z,36.20
2023-01-02T09:50:30.291Z,38.67
2023-01-02T09:53:34.025Z,39.55
2023-01-02T09:56:42.826Z,33.00
2023-01-02T10:00:06.549Z,34.03
2023-01-02T10:03:45.273Z,35.73
2023-01-02T10:06:55.487Z,37.17
2023-01-02T10:10:08.222Z,36.47
2023-01-02T10:16:59.472Z,33.23
2023-01-02T10:20:08.131Z,36.20
2023-01-02T10:23:21.731Z,35.78
2023-01-02T10:26:31.273Z,33.63
2023-01-02T10:29:40.145Z,35.90
2023-01-02T10:32:47.936Z,35.47
2023-01-02T10:36:36.512Z,29.87
2023-01-02T10:39:42.371Z,31.58
2023-01-02T10:42:45.452Z,33.08
2023-01-02T10:45:47.973Z,32.85
2023-01-02T10:48:52.391Z,41.77
2023-01-02T10:52:38.007Z,40.73
2023-01-02T10:55:44.295Z,54.83
2023-01-02T10:58:49.875Z,52.92
2023-01-02T11:01:58.134Z,46.42
2023-01-02T11:05:02.844Z,45.83
2023-01-02T11:08:16.334Z,37.00
2023-01-02T11:11:18.921Z,45.90
2023-01-02T11:14:31.212Z,44.55
2023-01-02T11:17:41.751Z,47.83
2023-01-02T11:20:51.159Z,42.07
2023-01-02T11:24:00.116Z,44.33
2023-01-02T11:27:03.077Z,38.10
2023-01-02T11:30:08.089Z,42.80
2023-01-02T11:33:15.271Z,45.95
2023-01-02T11:36:19.886Z,42.63
2023-01-02T11:39:23.967Z,42.90
2023-01-02T11:42:59.327Z,45.92
2023-01-02T11:46:06.866Z,50.58
2023-01-02T11:49:16.416Z,48.33
2023-01-02T11:52:28.111Z,48.20
2023-01-02T11:55:45.544Z,47.70
2023-01-02T11:58:47.945Z,49.78
2023-01-02T12:02:15.519Z,48.10
2023-01-02T12:05:23.851Z,49.47
2023-01-02T12:08:27.238Z,46.40
2023-01-02T12:11:35.513Z,55.70
2023-01-02T12:14:56.665Z,47.38
2023-01-02T12:18:26.068Z,52.58
2023-01-02T12:21:37.316Z,51.53
2023-01-02T12:24:57.750Z,46.00
2023-01-02T12:28:28.912Z,43.27
2023-01-02T12:31:46.505Z,46.75
2023-01-02T12:35:30.835Z,42.45
2023-01-02T12:39:09.987Z,44.28
2023-01-02T12:42:40.694Z,53.13
2023-01-02T12:46:13.998Z,44.73
2023-01-02T12:49:34.654Z,54.08
2023-01-02T12:52:52.010Z,51.88
2023-01-02T12:56:31.783Z,50.47
2023-01-02T12:59:37.062Z,45.23
2023-01-02T13:03:04.190Z,41.20
2023-01-02T13:06:43.932Z,45.92
2023-01-02T13:09:50.918Z,49.30
2023-01-02T13:12:56.860Z,47.45
2023-01-02T13:16:10.343Z,45.40
2023-01-02T13:19:56.893Z,53.00
2023-01-02T13:23:27.652Z,45.67
2023-01-02T13:26:31.744Z,39.42
2023-01-02T13:29:45.428Z,45.30
2023-01-02T13:32:48.202Z,44.63
2023-01-02T13:35:51.528Z,50.10
2023-01-02T13:39:01.917Z,41.70
2023-01-02T13:42:24.159Z,45.47
2023-01-02T13:45:28.840Z,39.83
2023-01-02T13:48:45.565Z,40.77
2023-01-02T13:51:48.990Z,44.87
2023-01-02T13:55:09.834Z,45.88
2023-01-02T13:58:21.147Z,38.88
2023-01-02T14:01:23.836Z,42.05
2023-01-02T14:04:27.796Z,41.83
2023-01-02T14:07:30.274Z,42.73
2023-01-02T14:10:38.523Z,42.38
2023-01-02T14:13:45.570Z,40.38
2023-01-02T14:16:47.976Z,43.58
2023-01-02T14:20:19.764Z,40.20
2023-01-02T14:23:33.666Z,38.53
2023-01-02T14:26:38.238Z,41.33
2023-01-02T14:30:03.009Z,39.95
2023-01-02T14:33:09.174Z,40.47
2023-01-02T14:36:12.469Z,48.90
2023-01-02T14:39:35.557Z,55.27
2023-01-02T14:42:57.817Z,52.33
2023-01-02T14:46:35.453Z,44.38
2023-01-02T14:49:38.904Z,49.88
2023-01-02T14:52:45.640Z,60.77
2023-01-02T14:55:52.917Z,60.40
2023-01-02T14:58:56.735Z,59.05
2023-01-02T15:02:06.815Z,58.30
2023-01-02T15:05:18.467Z,52.67
2023-01-02T15:08:33.036Z,61.57
2023-01-02T15:11:53.936Z,61.00
2023-01-02T15:14:56.992Z,54.30
2023-01-02T15:18:35.281Z,46.92
2023-01-02T15:21:39.871Z,67.93
2023-01-02T15:24:48.895Z,63.27
2023-01-02T15:27:54.612Z,56.23
2023-01-02T15:31:12.504Z,58.50
2023-01-02T15:34:24.719Z,52.95
2023-01-02T15:37:27.245Z,55.22
2023-01-02T15:40:33.779Z,68.10
2023-01-02T15:43:57.622Z,64.13
2023-01-02T15:47:00.876Z,58.17
2023-01-02T15:50:10.862Z,62.90
2023-01-02T15:53:26.812Z,56.58
2023-01-02T15:56:37.341Z,65.50
2023-01-02T15:59:40.028Z,63.53
2023-01-02T16:02:44.628Z,77.50
2023-01-02T16:05:57.652Z,90.75
2023-01-02T16:09:03.718Z,86.40
2023-01-02T16:12:06.723Z,79.17
2023-01-02T16:15:09.619Z,83.60
2023-01-02T16:18:13.170Z,87.18
2023-01-02T16:21:17.207Z,97.28
2023-01-02T16:24:23.522Z,93.22
2023-01-02T16:27:30.692Z,84.30
2023-01-02T16:30:40.875Z,117.63
2023-01-02T16:33:45.848Z,86.55
2023-01-02T16:36:48.454Z,127.20
2023-01-02T16:39:51.014Z,186.05
2023-01-02T16:43:02.715Z,122.10
2023-01-02T16:46:11.268Z,119.97
2023-01-02T16:49:16.989Z,102.03
2023-01-02T16:52:19.579Z,123.78
2023-01-02T16:55:23.878Z,95.57
2023-01-02T16:58:27.148Z,123.40
2023-01-02T17:01:29.823Z,96.20
2023-01-02T17:04:32.446Z,91.85
2023-01-02T17:07:34.902Z,106.00
2023-01-02T17:10:42.114Z,102.32
2023-01-02T17:13:44.983Z,102.63
2023-01-02T17:16:47.406Z,82.33
2023-01-02T17:19:49.980Z,84.70
2023-01-02T17:22:52.467Z,90.65
2023-01-02T17:25:54.988Z,96.15
2023-01-02T17:28:57.536Z,115.00
2023-01-02T17:32:00.152Z,79.43
2023-01-02T17:35:03.250Z,92.18
2023-01-02T17:38:05.920Z,98.05
2023-01-02T17:41:08.996Z,79.57
2023-01-02T17:44:11.422Z,81.27
2023-01-02T17:47:57.239Z,93.77
2023-01-02T17:50:36.818Z,89.22
2023-01-02T17:53:42.487Z,118.95
2023-01-02T17:56:44.986Z,118.70
2023-01-02T17:59:47.544Z,90.40
2023-01-02T18:02:52.160Z,121.80
2023-01-02T18:05:54.814Z,89.65
2023-01-02T18:08:57.350Z,104.95
2023-01-02T18:11:59.847Z,132.45
2023-01-02T18:15:10.639Z,109.27
2023-01-02T18:18:14.676Z,107.93
2023-01-02T18:21:22.047Z,103.05
2023-01-02T18:24:32.199Z,95.70
2023-01-02T18:27:35.566Z,99.65
2023-01-02T18:30:38.247Z,108.87
2023-01-02T18:33:42.880Z,107.03
2023-01-02T18:36:46.169Z,99.65
2023-01-02T18:39:50.129Z,105.15
2023-01-02T18:42:55.569Z,118.00
2023-01-02T18:46:00.524Z,132.20
2023-01-02T18:49:25.134Z,116.10
2023-01-02T18:52:30.555Z,125.47
2023-01-02T18:55:40.149Z,121.57
2023-01-02T18:58:47.243Z,143.00
2023-01-02T19:01:51.829Z,172.90
2023-01-02T19:04:56.059Z,172.90
2023-01-02T19:08:13.997Z,164.40
2023-01-02T19:11:37.830Z,118.38
2023-01-02T19:14:42.954Z,112.97
2023-01-02T19:17:45.488Z,134.17
2023-01-02T19:21:09.762Z,106.10
2023-01-02T19:24:22.164Z,94.85
2023-01-02T19:27:26.054Z,92.20
2023-01-02T19:30:35.782Z,87.05
2023-01-02T19:33:41.901Z,90.87
2023-01-02T19:36:45.329Z,89.07
2023-01-02T19:39:56.306Z,92.22
2023-01-02T19:43:00.001Z,109.55
2023-01-02T19:46:02.722Z,103.78
2023-01-02T19:49:05.203Z,101.57
2023-01-02T19:52:10.179Z,98.27
2023-01-02T19:55:14.354Z,108.65
2023-01-02T19:58:17.510Z,114.55
2023-01-02T20:01:22.309Z,104.38
2023-01-02T20:04:25.083Z,111.53
2023-01-02T20:07:27.586Z,108.23
2023-01-02T20:10:30.071Z,107.93
2023-01-02T20:13:32.625Z,120.47
2023-01-02T20:16:36.210Z,124.22
2023-01-02T20:19:39.213Z,123.37
2023-01-02T20:22:43.564Z,120.83
2023-01-02T20:25:47.129Z,123.68
2023-01-02T20:28:49.591Z,118.47
2023-01-02T20:31:52.599Z,117.55
2023-01-02T20:34:55.200Z,126.53
2023-01-02T20:37:57.958Z,130.37
2023-01-02T20:41:00.701Z,114.68
2023-01-02T20:44:03.448Z,119.93
2023-01-02T20:47:06.198Z,118.28
2023-01-02T20:50:09.348Z,121.10
2023-01-02T20:53:12.082Z,120.13
2023-01-02T20:56:15.079Z,117.00
2023-01-02T20:59:18.076Z,112.10
2023-01-02T21:02:21.019Z,103.60
2023-01-02T21:05:24.300Z,104.77
2023-01-02T21:08:28.675Z,105.53
2023-01-02T21:11:31.666Z,96.53
2023-01-02T21:14:37.759Z,96.63
2023-01-02T21:17:40.885Z,95.53
2023-01-02T21:20:47.517Z,104.03
2023-01-02T21:23:50.277Z,97.27
2023-01-02T21:26:53.025Z,95.88
2023-01-02T21:29:55.830Z,93.97
2023-01-02T21:32:58.524Z,88.25
2023-01-02T21:36:02.945Z,88.97
2023-01-02T21:39:05.561Z,98.57
2023-01-02T21:42:16.620Z,82.82
2023-01-02T21:45:19.109Z,93.28
2023-01-02T21:48:21.739Z,86.07
2023-01-02T21:51:27.639Z,94.10
2023-01-02T21:54:33.526Z,87.10
2023-01-02T21:58:11.859Z,90.97
2023-01-02T22:00:58.837Z,90.97
2023-01-02T22:04:01.513Z,95.40
2023-01-02T22:07:31.065Z,90.83
2023-01-02T22:10:37.629Z,91.13
2023-01-02T22:13:40.165Z,93.22
2023-01-02T22:16:43.977Z,99.97
2023-01-02T22:19:46.497Z,111.43
2023-01-02T22:22:49.676Z,97.67
2023-01-02T22:25:52.161Z,93.13
2023-01-02T22:28:58.141Z,104.93
2023-01-02T22:32:03.717Z,95.28
2023-01-02T22:35:07.883Z,102.82
2023-01-02T22:38:10.384Z,100.53
2023-01-02T22:41:13.081Z,96.10
2023-01-02T22:44:23.821Z,100.20
2023-01-02T22:47:30.027Z,108.97
2023-01-02T22:50:41.564Z,106.15
2023-01-02T22:53:44.055Z,132.83
2023-01-02T22:56:46.835Z,127.97
2023-01-02T22:59:49.403Z,133.65
2023-01-02T23:02:52.237Z,124.93
2023-01-02T23:05:54.775Z,155.35
2023-01-02T23:08:57.284Z,138.60
2023-01-02T23:11:59.942Z,145.27
2023-01-02T23:15:02.662Z,144.57
2023-01-02T23:18:24.065Z,138.32
2023-01-02T23:21:27.946Z,145.70
2023-01-02T23:24:36.330Z,129.17
2023-01-02T23:27:38.834Z,160.13
2023-01-02T23:30:41.455Z,135.95
2023-01-02T23:33:43.970Z,162.13
2023-01-02T23:36:46.903Z,149.75
2023-01-02T23:39:49.469Z,157.47
2023-01-02T23:42:52.088Z,159.07
2023-01-02T23:45:54.685Z,156.77
2023-01-02T23:48:57.311Z,156.13
2023-01-02T23:52:00.143Z,151.68
2023-01-02T23:55:02.791Z,155.53
2023-01-02T23:58:05.441Z,149.67
